createdAt,value
2019-05-17T07:44:31.993Z,0.00
2019-05-17T07:45:31.940Z,0.00
2019-05-17T07:47:06.527Z,511.88
2019-05-17T07:48:06.464Z,528.75
2019-05-17T07:49:06.503Z,540.00
2019-05-17T07:50:06.480Z,562.50
2019-05-17T07:51:06.441Z,585.00
2019-05-17T07:52:06.442Z,601.88
2019-05-17T07:53:06.411Z,613.12
2019-05-17T07:54:06.409Z,630.00
2019-05-17T07:55:06.418Z,646.88
2019-05-17T07:56:06.381Z,675.00
2019-05-17T07:57:06.384Z,714.38
2019-05-17T07:58:06.403Z,748.12
2019-05-17T07:59:06.360Z,748.12
2019-05-17T08:00:06.339Z,720.00
2019-05-17T08:01:06.349Z,759.38
2019-05-17T08:02:06.319Z,826.88
2019-05-17T08:03:06.303Z,866.25
2019-05-17T08:04:06.307Z,866.25
2019-05-17T08:05:06.315Z,849.38
2019-05-17T08:06:06.327Z,860.62
2019-05-17T08:07:06.285Z,911.25
2019-05-17T08:08:06.284Z,945.00
2019-05-17T08:09:06.257Z,956.25
2019-05-17T08:10:06.247Z,905.62
2019-05-17T08:11:06.252Z,849.38
2019-05-17T08:12:06.239Z,838.12
2019-05-17T08:13:06.221Z,855.00
2019-05-17T08:14:06.187Z,843.75
2019-05-17T08:15:06.186Z,798.75
2019-05-17T08:16:06.187Z,748.12
2019-05-17T08:17:06.168Z,748.12
2019-05-17T08:18:06.197Z,843.75
2019-05-17T08:19:06.149Z,1035.00
2019-05-17T08:20:06.161Z,984.38
2019-05-17T08:21:06.151Z,911.25
2019-05-17T08:22:06.114Z,855.00
2019-05-17T08:23:06.093Z,916.88
2019-05-17T08:24:06.118Z,1209.38
2019-05-17T08:25:06.139Z,1130.62
2019-05-17T08:26:06.105Z,911.25
2019-05-17T08:27:06.064Z,1012.50
2019-05-17T08:28:06.059Z,1074.38
2019-05-17T08:29:06.041Z,990.00
2019-05-17T08:30:06.048Z,1164.38
2019-05-17T08:31:06.033Z,1001.25
2019-05-17T08:32:06.032Z,945.00
2019-05-17T08:33:06.008Z,961.88
2019-05-17T08:34:06.000Z,1046.25
2019-05-17T08:35:05.966Z,2874.38
2019-05-17T08:36:06.044Z,1361.25
2019-05-17T08:37:05.952Z,1136.25
2019-05-17T08:38:05.957Z,2874.38
2019-05-17T08:39:06.050Z,2874.38
2019-05-17T08:40:05.946Z,2874.38
2019-05-17T08:41:05.915Z,1158.75
2019-05-17T08:42:05.956Z,855.00
2019-05-17T08:43:05.914Z,916.88
2019-05-17T08:44:05.868Z,787.50
2019-05-17T08:45:05.960Z,736.88
2019-05-17T08:46:05.856Z,646.88
2019-05-17T08:47:05.857Z,736.88
2019-05-17T08:48:05.970Z,804.38
2019-05-17T08:49:05.824Z,877.50
2019-05-17T08:50:05.812Z,798.75
2019-05-17T08:51:05.864Z,748.12
2019-05-17T08:52:05.791Z,736.88
2019-05-17T08:53:05.822Z,669.38
2019-05-17T08:54:05.838Z,742.50
2019-05-17T08:55:05.817Z,776.25
2019-05-17T08:56:05.777Z,815.62
2019-05-17T08:57:05.776Z,826.88
2019-05-17T08:58:05.851Z,984.38
2019-05-17T08:59:05.719Z,894.38
2019-05-17T09:00:05.716Z,725.62
2019-05-17T09:01:05.688Z,1001.25
2019-05-17T09:02:05.695Z,832.50
2019-05-17T09:03:05.690Z,703.12
2019-05-17T09:04:05.694Z,753.75
2019-05-17T09:05:05.694Z,838.12
2019-05-17T09:06:05.653Z,961.88
2019-05-17T09:07:05.626Z,866.25
2019-05-17T09:08:05.630Z,691.88
2019-05-17T09:09:05.624Z,838.12
2019-05-17T09:10:05.604Z,928.12
2019-05-17T09:11:05.588Z,945.00
2019-05-17T09:12:05.570Z,922.50
2019-05-17T09:13:05.560Z,855.00
2019-05-17T09:14:05.595Z,765.00
2019-05-17T09:15:05.604Z,871.88
2019-05-17T09:16:05.522Z,967.50
2019-05-17T09:17:05.503Z,978.75
2019-05-17T09:18:05.579Z,1040.62
2019-05-17T09:19:05.526Z,1040.62
2019-05-17T09:20:05.515Z,1074.38
2019-05-17T09:21:05.508Z,1136.25
2019-05-17T09:22:05.474Z,1006.88
2019-05-17T09:23:05.489Z,945.00
2019-05-17T09:24:05.504Z,1260.00
2019-05-17T09:25:05.439Z,1063.12
2019-05-17T09:26:05.481Z,984.38
2019-05-17T09:27:05.422Z,961.88
2019-05-17T09:28:05.414Z,843.75
2019-05-17T09:29:05.388Z,798.75
2019-05-17T09:30:05.380Z,905.62
2019-05-17T09:31:05.367Z,922.50
2019-05-17T09:32:05.454Z,888.75
2019-05-17T09:33:05.375Z,776.25
2019-05-17T09:34:05.341Z,843.75
2019-05-17T09:35:05.461Z,900.00
2019-05-17T09:36:05.318Z,860.62
2019-05-17T09:37:05.301Z,888.75
2019-05-17T09:38:05.376Z,916.88
2019-05-17T09:39:05.283Z,855.00
2019-05-17T09:40:05.279Z,911.25
2019-05-17T09:41:05.427Z,883.12
2019-05-17T09:42:05.259Z,894.38
2019-05-17T09:43:05.337Z,888.75
2019-05-17T09:44:13.074Z,821.25
2019-05-17T09:45:06.216Z,866.25
2019-05-17T09:46:05.216Z,900.00
2019-05-17T09:47:05.188Z,871.88
2019-05-17T09:48:05.225Z,900.00
2019-05-17T09:49:05.173Z,900.00
2019-05-17T09:50:05.167Z,916.88
2019-05-17T09:51:05.172Z,990.00
2019-05-17T09:52:05.133Z,871.88
2019-05-17T09:53:05.178Z,900.00
2019-05-17T09:54:05.158Z,905.62
2019-05-17T09:55:05.108Z,725.62
2019-05-17T09:56:05.103Z,736.88
2019-05-17T09:57:05.111Z,894.38
2019-05-17T09:58:05.088Z,1074.38
2019-05-17T09:59:05.070Z,1029.38
2019-05-17T10:00:05.083Z,821.25
2019-05-17T10:01:05.054Z,725.62
2019-05-17T10:02:05.020Z,736.88
2019-05-17T10:03:05.023Z,793.12
2019-05-17T10:04:05.032Z,871.88
2019-05-17T10:05:05.056Z,984.38
2019-05-17T10:06:04.987Z,1068.75
2019-05-17T10:07:04.971Z,916.88
2019-05-17T10:08:05.085Z,731.25
2019-05-17T10:09:05.006Z,703.12
2019-05-17T10:10:04.991Z,810.00
2019-05-17T10:11:08.935Z,1029.38
2019-05-17T10:12:05.942Z,1096.88
2019-05-17T10:13:04.947Z,961.88
2019-05-17T10:14:05.050Z,776.25
2019-05-17T10:15:04.937Z,663.75
2019-05-17T10:16:04.899Z,618.75
2019-05-17T10:17:04.983Z,579.38
2019-05-17T10:18:04.865Z,590.62
2019-05-17T10:19:04.852Z,680.62
2019-05-17T10:20:04.989Z,748.12
2019-05-17T10:21:04.857Z,703.12
2019-05-17T10:22:04.812Z,646.88
2019-05-17T10:23:04.915Z,697.50
2019-05-17T10:24:04.813Z,787.50
2019-05-17T10:25:04.843Z,826.88
2019-05-17T10:26:04.785Z,776.25
2019-05-17T10:27:04.811Z,703.12
2019-05-17T10:28:04.744Z,618.75
2019-05-17T10:29:04.762Z,573.75
2019-05-17T10:30:04.738Z,556.88
2019-05-17T10:31:04.723Z,551.25
2019-05-17T10:32:04.773Z,551.25
2019-05-17T10:33:04.691Z,551.25
2019-05-17T10:34:04.718Z,556.88
2019-05-17T10:35:04.709Z,573.75
2019-05-17T10:36:04.669Z,613.12
2019-05-17T10:37:04.900Z,658.12
2019-05-17T10:38:04.675Z,669.38
2019-05-17T10:39:04.639Z,596.25
2019-05-17T10:40:04.636Z,478.12
2019-05-17T10:41:04.629Z,376.88
2019-05-17T10:42:04.673Z,331.88
2019-05-17T10:43:04.651Z,326.25
2019-05-17T10:44:04.587Z,331.88
2019-05-17T10:45:04.788Z,331.88
2019-05-17T10:46:04.574Z,337.50
2019-05-17T10:47:04.538Z,343.12
2019-05-17T10:48:04.801Z,360.00
2019-05-17T10:49:04.516Z,410.62
2019-05-17T10:50:04.522Z,455.62
2019-05-17T10:51:04.669Z,511.88
2019-05-17T10:52:04.535Z,585.00
2019-05-17T10:53:04.480Z,652.50
2019-05-17T10:54:04.636Z,675.00
2019-05-17T10:55:04.486Z,646.88
2019-05-17T10:56:04.458Z,573.75
2019-05-17T10:57:04.515Z,483.75
2019-05-17T10:58:04.480Z,421.88
2019-05-17T10:59:04.459Z,393.75
2019-05-17T11:00:04.500Z,405.00
2019-05-17T11:01:04.391Z,427.50
2019-05-17T11:02:04.377Z,444.38
2019-05-17T11:03:04.478Z,472.50
2019-05-17T11:04:04.386Z,551.25
2019-05-17T11:05:04.382Z,624.38
2019-05-17T11:06:04.440Z,652.50
2019-05-17T11:07:04.408Z,663.75
2019-05-17T11:08:04.317Z,714.38
2019-05-17T11:09:04.315Z,765.00
2019-05-17T11:10:04.394Z,714.38
2019-05-17T11:11:04.284Z,596.25
2019-05-17T11:12:04.290Z,517.50
2019-05-17T11:13:04.277Z,534.38
2019-05-17T11:14:04.296Z,568.12
2019-05-17T11:15:11.214Z,545.62
2019-05-17T11:16:05.255Z,545.62
2019-05-17T11:17:04.233Z,579.38
2019-05-17T11:18:04.226Z,551.25
2019-05-17T11:19:04.343Z,517.50
2019-05-17T11:20:04.207Z,551.25
2019-05-17T11:21:04.225Z,585.00
2019-05-17T11:22:04.363Z,579.38
2019-05-17T11:23:04.197Z,556.88
2019-05-17T11:24:04.183Z,562.50
2019-05-17T11:25:04.222Z,590.62
2019-05-17T11:26:04.134Z,590.62
2019-05-17T11:27:04.148Z,562.50
2019-05-17T11:28:04.193Z,523.12
2019-05-17T11:29:04.142Z,511.88
2019-05-17T11:30:04.092Z,551.25
2019-05-17T11:31:04.129Z,590.62
2019-05-17T11:32:04.139Z,601.88
2019-05-17T11:33:04.062Z,585.00
2019-05-17T11:34:04.028Z,545.62
2019-05-17T11:35:04.079Z,500.62
2019-05-17T11:36:04.055Z,472.50
2019-05-17T11:37:04.022Z,438.75
2019-05-17T11:38:04.000Z,405.00
2019-05-17T11:39:04.005Z,360.00
2019-05-17T11:40:03.969Z,326.25
2019-05-17T11:41:19.861Z,303.75
2019-05-17T11:42:05.004Z,292.50
2019-05-17T11:43:03.937Z,281.25
2019-05-17T11:44:03.930Z,270.00
2019-05-17T11:45:03.917Z,270.00
2019-05-17T11:46:03.918Z,298.12
2019-05-17T11:47:03.920Z,376.88
2019-05-17T11:48:03.962Z,489.38
2019-05-17T11:49:03.868Z,624.38
2019-05-17T11:50:03.887Z,776.25
2019-05-17T11:51:03.935Z,855.00
2019-05-17T11:52:03.846Z,826.88
2019-05-17T11:53:03.894Z,793.12
2019-05-17T11:54:03.872Z,765.00
2019-05-17T11:55:03.815Z,691.88
2019-05-17T11:56:03.855Z,596.25
2019-05-17T11:57:03.886Z,562.50
2019-05-17T11:58:03.816Z,641.25
2019-05-17T11:59:03.815Z,781.88
2019-05-17T12:00:03.844Z,860.62
2019-05-17T12:01:03.752Z,849.38
2019-05-17T12:02:03.755Z,826.88
2019-05-17T12:03:03.951Z,821.25
2019-05-17T12:04:03.734Z,1001.25
2019-05-17T12:05:03.704Z,1423.12
2019-05-17T12:06:03.751Z,1389.38
2019-05-17T12:07:03.685Z,1310.62
2019-05-17T12:08:03.756Z,1372.50
2019-05-17T12:09:03.815Z,2874.38
2019-05-17T12:10:03.664Z,2874.38
2019-05-17T12:11:03.649Z,2874.38
2019-05-17T12:12:03.719Z,2874.38
2019-05-17T12:13:03.647Z,2874.38
2019-05-17T12:14:03.630Z,2874.38
2019-05-17T12:15:03.642Z,2874.38
2019-05-17T12:16:03.682Z,1276.88
2019-05-17T12:17:03.587Z,973.12
2019-05-17T12:18:03.606Z,2874.38
2019-05-17T12:19:03.578Z,2874.38
2019-05-17T12:20:03.572Z,2874.38
2019-05-17T12:21:03.535Z,883.12
2019-05-17T12:22:03.528Z,2874.38
2019-05-17T12:23:03.516Z,2874.38
2019-05-17T12:24:03.498Z,1018.12
2019-05-17T12:25:03.508Z,984.38
2019-05-17T12:26:03.521Z,995.62
2019-05-17T12:27:03.552Z,1170.00
2019-05-17T12:28:03.479Z,2874.38
2019-05-17T12:29:03.468Z,2874.38
2019-05-17T12:30:03.479Z,1417.50
2019-05-17T12:31:03.438Z,2874.38
2019-05-17T12:32:03.455Z,2874.38
2019-05-17T12:33:03.464Z,2874.38
2019-05-17T12:34:03.573Z,1406.25
2019-05-17T12:35:03.571Z,961.88
2019-05-17T12:36:03.454Z,815.62
2019-05-17T12:37:03.437Z,703.12
2019-05-17T12:38:03.365Z,613.12
2019-05-17T12:39:03.362Z,551.25
2019-05-17T12:40:03.431Z,489.38
2019-05-17T12:41:03.445Z,433.12
2019-05-17T12:42:03.392Z,371.25
2019-05-17T12:43:03.324Z,348.75
2019-05-17T12:44:03.376Z,354.38
2019-05-17T12:45:03.316Z,376.88
2019-05-17T12:46:03.303Z,388.12
2019-05-17T12:47:03.264Z,399.38
2019-05-17T12:48:03.267Z,405.00
2019-05-17T12:49:03.256Z,393.75
2019-05-17T12:50:03.235Z,365.62
2019-05-17T12:51:03.246Z,382.50
2019-05-17T12:52:03.216Z,416.25
2019-05-17T12:53:03.219Z,433.12
2019-05-17T12:54:03.201Z,438.75
2019-05-17T12:55:03.168Z,461.25
2019-05-17T12:56:03.207Z,511.88
2019-05-17T12:57:04.838Z,579.38
2019-05-17T12:58:03.141Z,675.00
2019-05-17T12:59:03.179Z,765.00
2019-05-17T13:00:03.372Z,787.50
2019-05-17T13:01:03.105Z,781.88
2019-05-17T13:02:03.145Z,753.75
2019-05-17T13:03:03.201Z,669.38
2019-05-17T13:04:03.090Z,601.88
2019-05-17T13:05:03.062Z,551.25
2019-05-17T13:06:03.205Z,523.12
2019-05-17T13:07:03.116Z,528.75
2019-05-17T13:08:03.044Z,562.50
2019-05-17T13:09:03.121Z,613.12
2019-05-17T13:10:03.037Z,641.25
2019-05-17T13:11:03.011Z,714.38
2019-05-17T13:12:03.120Z,646.88
2019-05-17T13:13:02.979Z,641.25
2019-05-17T13:14:03.052Z,601.88
2019-05-17T13:15:02.982Z,523.12
2019-05-17T13:16:16.782Z,455.62
2019-05-17T13:17:04.029Z,450.00
2019-05-17T13:18:02.953Z,483.75
2019-05-17T13:19:02.928Z,489.38
2019-05-17T13:20:03.207Z,433.12
2019-05-17T13:21:02.906Z,376.88
2019-05-17T13:22:02.958Z,360.00
2019-05-17T13:23:03.279Z,348.75
2019-05-17T13:24:03.707Z,315.00
2019-05-17T13:25:02.932Z,292.50
2019-05-17T13:26:02.899Z,309.38
2019-05-17T13:27:02.853Z,348.75
2019-05-17T13:28:02.997Z,393.75
2019-05-17T13:29:02.811Z,416.25
2019-05-17T13:30:02.863Z,416.25
2019-05-17T13:31:02.929Z,421.88
2019-05-17T13:32:02.788Z,433.12
2019-05-17T13:33:02.795Z,427.50
2019-05-17T13:34:02.850Z,421.88
2019-05-17T13:35:02.756Z,399.38
2019-05-17T13:36:02.731Z,360.00
2019-05-17T13:37:02.777Z,331.88
2019-05-17T13:38:02.709Z,331.88
2019-05-17T13:39:02.751Z,343.12
2019-05-17T13:40:02.689Z,348.75
2019-05-17T13:41:02.688Z,360.00
2019-05-17T13:42:02.691Z,388.12
2019-05-17T13:43:02.666Z,466.88
2019-05-17T13:44:02.708Z,573.75
2019-05-17T13:45:02.629Z,658.12
2019-05-17T13:46:02.637Z,753.75
2019-05-17T13:47:02.640Z,961.88
2019-05-17T13:48:02.624Z,1203.75
2019-05-17T13:49:02.624Z,2874.38
2019-05-17T13:50:02.600Z,2874.38
2019-05-17T13:51:02.600Z,1316.25
2019-05-17T13:52:02.678Z,2874.38
2019-05-17T13:53:02.550Z,2874.38
2019-05-17T13:54:02.580Z,2874.38
2019-05-17T13:55:02.532Z,2874.38
2019-05-17T13:56:02.517Z,2874.38
2019-05-17T13:57:02.496Z,2874.38
2019-05-17T13:58:02.515Z,2874.38
2019-05-17T13:59:02.505Z,2874.38
2019-05-17T14:00:02.468Z,2874.38
2019-05-17T14:01:02.509Z,1096.88
2019-05-17T14:02:02.467Z,843.75
2019-05-17T14:03:02.456Z,939.38
2019-05-17T14:04:02.473Z,905.62
2019-05-17T14:05:02.497Z,826.88
2019-05-17T14:06:02.417Z,832.50
2019-05-17T14:07:02.405Z,832.50
2019-05-17T14:08:02.428Z,776.25
2019-05-17T14:09:02.398Z,680.62
2019-05-17T14:10:02.577Z,596.25
2019-05-17T14:11:02.456Z,523.12
2019-05-17T14:12:02.424Z,506.25
2019-05-17T14:13:02.369Z,545.62
2019-05-17T14:14:02.424Z,624.38
2019-05-17T14:15:04.184Z,765.00
2019-05-17T14:16:02.319Z,1012.50
2019-05-17T14:17:02.421Z,1192.50
2019-05-17T14:18:02.287Z,1237.50
2019-05-17T14:19:02.272Z,1198.12
2019-05-17T14:20:02.298Z,1074.38
2019-05-17T14:21:02.295Z,1051.88
2019-05-17T14:22:02.267Z,1068.75
2019-05-17T14:23:02.248Z,1080.00
2019-05-17T14:24:02.246Z,1113.75
2019-05-17T14:25:02.208Z,1035.00
2019-05-17T14:26:02.221Z,1102.50
2019-05-17T14:27:02.187Z,1023.75
2019-05-17T14:28:02.177Z,922.50
2019-05-17T14:29:02.173Z,849.38
2019-05-17T14:30:02.193Z,776.25
2019-05-17T14:31:02.184Z,725.62
2019-05-17T14:32:02.214Z,703.12
2019-05-17T14:33:02.148Z,708.75
2019-05-17T14:34:02.129Z,720.00
2019-05-17T14:35:02.121Z,736.88
2019-05-17T14:36:02.178Z,736.88
2019-05-17T14:37:02.115Z,736.88
2019-05-17T14:38:02.060Z,720.00
2019-05-17T14:39:02.065Z,697.50
2019-05-17T14:40:02.045Z,691.88
2019-05-17T14:41:07.889Z,675.00
2019-05-17T14:42:03.075Z,658.12
2019-05-17T14:43:02.026Z,635.62
2019-05-17T14:44:02.006Z,703.12
2019-05-17T14:45:02.020Z,832.50
2019-05-17T14:46:01.978Z,995.62
2019-05-17T14:47:01.994Z,1164.38
2019-05-17T14:48:02.030Z,1260.00
2019-05-17T14:49:01.969Z,1113.75
2019-05-17T14:50:02.053Z,1018.12
2019-05-17T14:51:01.939Z,798.75
2019-05-17T14:52:01.914Z,748.12
2019-05-17T14:53:01.956Z,686.25
2019-05-17T14:54:01.896Z,618.75
2019-05-17T14:55:02.284Z,556.88
2019-05-17T14:56:01.883Z,523.12
2019-05-17T14:57:01.871Z,495.00
2019-05-17T14:58:01.886Z,478.12
2019-05-17T14:59:01.856Z,483.75
2019-05-17T15:00:01.821Z,495.00
2019-05-17T15:01:01.929Z,523.12
2019-05-17T15:02:01.822Z,523.12
2019-05-17T15:03:01.806Z,500.62
2019-05-17T15:04:01.840Z,478.12
2019-05-17T15:05:02.629Z,489.38
2019-05-17T15:06:01.776Z,540.00
2019-05-17T15:07:01.743Z,596.25
2019-05-17T15:08:01.802Z,652.50
2019-05-17T15:09:01.758Z,703.12
2019-05-17T15:10:01.719Z,697.50
2019-05-17T15:11:01.706Z,613.12
2019-05-17T15:12:01.726Z,534.38
2019-05-17T15:13:01.839Z,500.62
2019-05-17T15:14:01.664Z,517.50
2019-05-17T15:15:01.709Z,528.75
2019-05-17T15:16:01.685Z,500.62
2019-05-17T15:17:01.707Z,466.88
2019-05-17T15:18:01.642Z,444.38
2019-05-17T15:19:01.633Z,421.88
2019-05-17T15:20:01.643Z,410.62
2019-05-17T15:21:01.614Z,405.00
2019-05-17T15:22:01.620Z,405.00
2019-05-17T15:23:01.591Z,410.62
2019-05-17T15:24:01.575Z,399.38
2019-05-17T15:25:02.017Z,388.12
2019-05-17T15:26:01.550Z,360.00
2019-05-17T15:27:05.820Z,337.50
2019-05-17T15:28:01.520Z,326.25
2019-05-17T15:29:01.543Z,298.12
2019-05-17T15:30:01.535Z,270.00
2019-05-17T15:31:01.499Z,247.50
2019-05-17T15:32:01.481Z,225.00
2019-05-17T15:33:01.483Z,208.12
2019-05-17T15:34:01.463Z,202.50
2019-05-17T15:35:01.494Z,196.88
2019-05-17T15:36:01.451Z,191.25
2019-05-17T15:37:01.416Z,191.25
2019-05-17T15:38:01.456Z,191.25
2019-05-17T15:39:01.466Z,196.88
2019-05-17T15:40:01.407Z,196.88
2019-05-17T15:41:01.457Z,196.88
2019-05-17T15:42:01.430Z,191.25
2019-05-17T15:43:01.371Z,191.25
2019-05-17T15:44:01.368Z,185.62
2019-05-17T15:45:01.367Z,185.62
2019-05-17T15:46:01.379Z,180.00
2019-05-17T15:47:01.326Z,174.38
2019-05-17T15:48:01.308Z,168.75
2019-05-17T15:49:01.317Z,163.12
2019-05-17T15:50:01.298Z,163.12
2019-05-17T15:51:01.544Z,163.12
2019-05-17T15:52:01.309Z,168.75
2019-05-17T15:53:01.302Z,174.38
2019-05-17T15:54:01.246Z,180.00
2019-05-17T15:55:01.230Z,185.62
2019-05-17T15:56:01.217Z,191.25
2019-05-17T15:57:01.227Z,196.88
2019-05-17T15:58:01.343Z,202.50
2019-05-17T15:59:01.195Z,208.12
2019-05-17T16:00:01.189Z,213.75
2019-05-17T16:01:01.202Z,225.00
2019-05-17T16:02:01.189Z,236.25
2019-05-17T16:03:01.167Z,247.50
2019-05-17T16:04:01.138Z,258.75
2019-05-17T16:05:01.124Z,270.00
2019-05-17T16:06:01.120Z,281.25
2019-05-17T16:07:01.194Z,292.50
2019-05-17T16:08:01.111Z,309.38
2019-05-17T16:09:01.084Z,320.62
2019-05-17T16:10:01.069Z,326.25
2019-05-17T16:11:01.063Z,331.88
2019-05-17T16:12:01.101Z,331.88
2019-05-17T16:13:03.197Z,331.88
2019-05-17T16:14:01.032Z,331.88
2019-05-17T16:15:01.025Z,331.88
2019-05-17T16:16:01.004Z,331.88
2019-05-17T16:17:01.035Z,331.88
2019-05-17T16:18:00.988Z,331.88
2019-05-17T16:19:00.983Z,331.88
2019-05-17T16:20:00.962Z,337.50
2019-05-17T16:21:00.950Z,337.50
2019-05-17T16:22:00.992Z,343.12
2019-05-17T16:23:00.921Z,343.12
2019-05-17T16:24:00.926Z,343.12
2019-05-17T16:25:00.902Z,343.12
2019-05-17T16:26:00.919Z,337.50
2019-05-17T16:27:00.953Z,331.88
2019-05-17T16:28:00.895Z,326.25
2019-05-17T16:29:00.929Z,320.62
2019-05-17T16:30:01.791Z,309.38
2019-05-17T16:31:00.920Z,292.50
2019-05-17T16:32:00.881Z,281.25
2019-05-17T16:33:00.836Z,270.00
2019-05-17T16:34:00.818Z,270.00
2019-05-17T16:35:00.829Z,270.00
2019-05-17T16:36:00.814Z,270.00
2019-05-17T16:37:00.818Z,264.38
2019-05-17T16:38:00.767Z,253.12
2019-05-17T16:39:00.783Z,241.88
2019-05-17T16:40:00.758Z,236.25
2019-05-17T16:41:01.158Z,236.25
2019-05-17T16:42:00.736Z,241.88
2019-05-17T16:43:00.737Z,247.50
2019-05-17T16:44:00.696Z,241.88
2019-05-17T16:45:00.715Z,230.62
2019-05-17T16:46:00.678Z,213.75
2019-05-17T16:47:00.690Z,208.12
2019-05-17T16:48:00.675Z,208.12
2019-05-17T16:49:00.714Z,225.00
2019-05-17T16:50:00.635Z,247.50
2019-05-17T16:51:00.628Z,264.38
2019-05-17T16:52:00.620Z,275.62
2019-05-17T16:53:06.026Z,270.00
2019-05-17T16:54:01.611Z,258.75
2019-05-17T16:55:00.606Z,241.88
2019-05-17T16:56:00.586Z,219.38
2019-05-17T16:57:00.590Z,196.88
2019-05-17T16:58:00.572Z,174.38
2019-05-17T16:59:00.569Z,157.50
2019-05-17T17:00:00.534Z,140.62
2019-05-17T17:01:03.502Z,129.38
2019-05-17T17:02:00.515Z,129.38
2019-05-17T17:03:00.516Z,135.00
2019-05-17T17:04:00.512Z,146.25
2019-05-17T17:05:00.481Z,163.12
2019-05-17T17:06:00.474Z,180.00
2019-05-17T17:07:00.472Z,191.25
2019-05-17T17:08:00.450Z,191.25
2019-05-17T17:09:00.423Z,185.62
2019-05-17T17:10:00.439Z,180.00
2019-05-17T17:11:00.437Z,180.00
2019-05-17T17:12:00.404Z,185.62
2019-05-17T17:13:00.397Z,180.00
2019-05-17T17:14:00.394Z,180.00
2019-05-17T17:15:00.394Z,180.00
2019-05-17T17:16:00.349Z,180.00
2019-05-17T17:17:00.351Z,185.62
2019-05-17T17:18:00.545Z,191.25
2019-05-17T17:19:00.329Z,196.88
2019-05-17T17:20:00.315Z,208.12
2019-05-17T17:21:00.336Z,213.75
2019-05-17T17:22:00.301Z,213.75
2019-05-17T17:23:00.278Z,208.12
2019-05-17T17:24:00.264Z,202.50
2019-05-17T17:25:00.271Z,196.88
2019-05-17T17:26:00.261Z,196.88
2019-05-17T17:27:00.229Z,196.88
2019-05-17T17:28:00.232Z,208.12
2019-05-17T17:29:00.221Z,208.12
2019-05-17T17:30:00.210Z,202.50
2019-05-17T17:31:00.232Z,191.25
2019-05-17T17:32:00.195Z,180.00
2019-05-17T17:33:00.179Z,168.75
2019-05-17T17:34:00.160Z,168.75
2019-05-17T17:35:00.156Z,157.50
2019-05-17T17:36:00.194Z,151.88
2019-05-17T17:37:00.130Z,146.25
2019-05-17T17:38:00.137Z,146.25
2019-05-17T17:39:00.105Z,140.62
2019-05-17T17:40:00.131Z,146.25
2019-05-17T17:41:00.106Z,146.25
2019-05-17T17:42:00.117Z,151.88
2019-05-17T17:43:00.066Z,151.88
2019-05-17T17:44:00.055Z,151.88
2019-05-17T17:45:00.044Z,151.88
2019-05-17T17:46:00.058Z,157.50
2019-05-17T17:47:00.035Z,157.50
2019-05-17T17:48:00.025Z,163.12
2019-05-17T17:49:00.015Z,157.50
2019-05-17T17:49:59.985Z,151.88
2019-05-17T17:51:00.001Z,151.88
2019-05-17T17:51:59.988Z,151.88
2019-05-17T17:52:59.966Z,146.25
2019-05-17T17:53:59.974Z,146.25
2019-05-17T17:54:59.971Z,140.62
2019-05-17T17:55:59.924Z,140.62
2019-05-17T17:56:59.917Z,135.00
2019-05-17T17:57:59.921Z,129.38
2019-05-17T17:58:59.952Z,123.75
2019-05-17T17:59:59.877Z,118.12
2019-05-17T18:00:59.890Z,118.12
2019-05-17T18:01:59.885Z,118.12
2019-05-17T18:02:59.894Z,118.12
2019-05-17T18:03:59.859Z,112.50
2019-05-17T18:04:59.839Z,112.50
2019-05-17T18:05:59.822Z,106.88
2019-05-17T18:06:59.813Z,106.88
2019-05-17T18:07:59.829Z,106.88
2019-05-17T18:08:59.791Z,106.88
2019-05-17T18:09:59.766Z,106.88
2019-05-17T18:10:59.780Z,101.25
2019-05-17T18:11:59.772Z,101.25
2019-05-17T18:12:59.750Z,95.62
2019-05-17T18:14:12.413Z,90.00
2019-05-17T18:15:03.416Z,84.38
2019-05-17T18:16:00.723Z,78.75
2019-05-17T18:16:59.722Z,73.12
2019-05-17T18:17:59.708Z,73.12
2019-05-17T18:18:59.699Z,67.50
2019-05-17T18:19:59.675Z,67.50
2019-05-17T18:20:59.658Z,67.50
2019-05-17T18:21:59.653Z,61.88
2019-05-17T18:22:59.638Z,61.88
2019-05-17T18:23:59.652Z,61.88
2019-05-17T18:24:59.608Z,56.25
2019-05-17T18:25:59.679Z,56.25
2019-05-17T18:26:59.598Z,56.25
2019-05-17T18:27:59.582Z,56.25
2019-05-17T18:28:59.622Z,56.25
2019-05-17T18:29:59.575Z,50.62
2019-05-17T18:30:59.561Z,50.62
2019-05-17T18:31:59.546Z,50.62
2019-05-17T18:32:59.538Z,45.00
2019-05-17T18:33:59.553Z,45.00
2019-05-17T18:34:59.535Z,45.00
2019-05-17T18:35:59.487Z,45.00
2019-05-17T18:36:59.489Z,45.00
2019-05-17T18:37:59.481Z,39.38
2019-05-17T18:38:59.460Z,39.38
2019-05-17T18:39:59.485Z,39.38
2019-05-17T18:40:59.454Z,39.38
2019-05-17T18:41:59.450Z,33.75
2019-05-17T18:42:59.436Z,33.75
2019-05-17T18:43:59.414Z,33.75
2019-05-17T18:44:59.422Z,33.75
2019-05-17T18:45:59.386Z,33.75
2019-05-17T18:46:59.403Z,33.75
2019-05-17T18:47:59.397Z,33.75
2019-05-17T18:48:59.365Z,33.75
2019-05-17T18:49:59.346Z,28.12
2019-05-17T18:50:59.413Z,28.12
2019-05-17T18:51:59.330Z,28.12
2019-05-17T18:53:15.983Z,28.12
2019-05-17T18:54:00.335Z,22.50
2019-05-17T18:54:59.312Z,22.50
2019-05-17T18:55:59.314Z,22.50
2019-05-17T18:56:59.269Z,22.50
2019-05-17T18:57:59.266Z,16.88
2019-05-17T18:58:59.250Z,16.88
2019-05-17T18:59:59.249Z,16.88
2019-05-17T19:00:59.275Z,16.88
2019-05-17T19:01:59.222Z,16.88
2019-05-17T19:02:59.207Z,16.88
2019-05-17T19:03:59.204Z,16.88
2019-05-17T19:04:59.187Z,11.25
2019-05-17T19:05:59.161Z,11.25
2019-05-17T19:06:59.182Z,11.25
2019-05-17T19:07:59.142Z,11.25
2019-05-17T19:08:59.146Z,11.25
2019-05-17T19:09:59.131Z,11.25
2019-05-17T19:10:59.134Z,5.62
2019-05-17T19:11:59.143Z,5.62
2019-05-17T19:12:59.099Z,5.62
2019-05-17T19:13:59.080Z,5.62
2019-05-17T19:15:00.696Z,5.62
2019-05-17T19:15:59.080Z,5.62
2019-05-17T19:16:59.091Z,5.62
2019-05-17T19:17:59.067Z,5.62
2019-05-17T19:18:59.048Z,5.62
2019-05-17T19:19:59.034Z,5.62
2019-05-17T19:20:59.017Z,5.62
2019-05-17T19:21:59.036Z,0.00
2019-05-17T19:22:59.056Z,0.00
2019-05-17T19:23:58.978Z,0.00
2019-05-17T19:24:59.004Z,0.00
2019-05-17T19:25:58.974Z,0.00
2019-05-17T19:26:59.022Z,0.00
2019-05-17T19:27:58.955Z,0.00
2019-05-17T19:28:58.944Z,0.00
2019-05-17T19:29:58.915Z,0.00
2019-05-17T19:30:58.902Z,0.00
2019-05-17T19:31:58.943Z,0.00
2019-05-17T19:32:59.027Z,0.00
2019-05-17T19:33:58.864Z,0.00
2019-05-17T19:34:58.888Z,0.00
2019-05-17T19:35:58.875Z,0.00
2019-05-17T19:36:58.908Z,0.00
2019-05-17T19:37:58.875Z,0.00
2019-05-17T19:38:58.827Z,0.00
2019-05-17T19:39:58.812Z,0.00
2019-05-17T19:40:58.812Z,0.00
2019-05-17T19:41:58.784Z,0.00
2019-05-17T19:42:58.775Z,0.00
2019-05-17T19:43:58.792Z,0.00
2019-05-17T19:44:59.617Z,0.00
2019-05-17T19:45:58.752Z,0.00
2019-05-17T19:46:58.747Z,0.00
2019-05-17T19:47:58.734Z,0.00
2019-05-17T19:48:58.740Z,0.00
2019-05-17T19:49:58.794Z,0.00
2019-05-17T19:50:58.730Z,0.00
2019-05-17T19:51:58.707Z,0.00
2019-05-17T19:52:58.698Z,0.00
2019-05-17T19:53:58.725Z,0.00
2019-05-17T19:54:58.658Z,0.00
2019-05-17T19:55:58.647Z,0.00
2019-05-17T19:56:58.639Z,0.00
2019-05-17T19:57:58.628Z,0.00
2019-05-17T19:58:58.709Z,0.00
2019-05-17T19:59:58.657Z,0.00
2019-05-17T20:00:58.671Z,0.00
2019-05-17T20:01:58.694Z,0.00
2019-05-17T20:02:58.559Z,0.00
2019-05-17T20:03:58.563Z,0.00
2019-05-17T20:04:58.587Z,0.00
2019-05-17T20:05:58.527Z,0.00
2019-05-17T20:06:58.520Z,0.00
2019-05-17T20:07:58.526Z,0.00
2019-05-17T20:08:58.510Z,0.00
2019-05-17T20:09:58.501Z,0.00
2019-05-17T20:10:58.512Z,0.00
2019-05-17T20:11:58.484Z,0.00
2019-05-17T20:12:58.527Z,0.00
2019-05-17T20:13:58.445Z,0.00
2019-05-17T20:15:14.415Z,0.00
2019-05-17T20:15:59.475Z,0.00